Time;durP1;ratioP1;P1;durP2;ratioP2;P2;SDS_P1;SDS_P2;PMS_P1;PMS_P2;Temp;Humidity;BMP_temperature;BMP_pressure;BME280_temperature;BME280_humidity;BME280_pressure;Samples;Min_cycle;Max_cycle;Signal;HPM_P1;HPM_P2
2021/05/12 06:01:28;;;;;;;15.13;11.88;;;;;;;;;;10547928;28;20025;-86
2021/05/12 06:12:02;;;;;;;15.60;13.93;;;;;;;;;;10544772;28;20040;-87
2021/05/12 06:17:14;;;;;;;8.73;7.72;;;;;;;;;;10544078;28;20028;-86
2021/05/12 06:22:16;;;;;;;8.98;7.85;;;;;;;;;;10542571;28;20078;-86
2021/05/12 06:27:24;;;;;;;14.07;12.65;;;;;;;;;;10542021;28;20024;-87
2021/05/12 06:32:25;;;;;;;15.13;13.05;;;;;;;;;;10540128;28;20424;-86
2021/05/12 06:37:29;;;;;;;5.65;5.07;;;;;;;;;;10539379;28;20017;-87
2021/05/12 06:42:29;;;;;;;11.82;10.63;;;;;;;;;;10540468;28;20078;-86
2021/05/12 06:47:31;;;;;;;10.73;9.32;;;;;;;;;;10538595;28;20028;-86
2021/05/12 06:52:32;;;;;;;7.80;5.82;;;;;;;;;;10539935;28;20041;-86
2021/05/12 06:57:33;;;;;;;8.77;6.88;;;;;;;;;;10541118;28;20032;-86
2021/05/12 07:02:33;;;;;;;4.47;4.00;;;;;;;;;;10540877;28;20059;-86
2021/05/12 07:07:34;;;;;;;5.03;3.72;;;;;;;;;;10511898;28;20494;-87
2021/05/12 07:12:36;;;;;;;8.93;4.90;;;;;;;;;;10508648;28;20028;-87
2021/05/12 07:17:39;;;;;;;7.85;5.55;;;;;;;;;;10509118;28;20021;-86
2021/05/12 07:22:40;;;;;;;9.13;6.53;;;;;;;;;;10521038;28;20091;-87
2021/05/12 07:27:42;;;;;;;8.80;7.78;;;;;;;;;;10509693;28;20098;-89
2021/05/12 07:32:43;;;;;;;7.15;5.88;;;;;;;;;;10506736;28;20039;-87
2021/05/12 07:37:44;;;;;;;8.80;5.13;;;;;;;;;;10507692;28;20033;-87
2021/05/12 07:42:46;;;;;;;9.75;6.28;;;;;;;;;;10507732;28;20048;-88
2021/05/12 07:47:47;;;;;;;8.48;5.03;;;;;;;;;;10511024;28;20020;-86
2021/05/12 07:52:48;;;;;;;6.63;4.60;;;;;;;;;;10509030;28;20064;-86
2021/05/12 07:57:49;;;;;;;8.43;4.30;;;;;;;;;;10509739;28;20024;-87
2021/05/12 08:02:53;;;;;;;6.50;4.85;;;;;;;;;;10509406;28;20028;-87
2021/05/12 08:07:55;;;;;;;5.88;3.88;;;;;;;;;;10507744;28;20112;-88
2021/05/12 08:12:58;;;;;;;5.05;3.80;;;;;;;;;;10507541;28;20402;-88
2021/05/12 08:17:59;;;;;;;5.70;3.30;;;;;;;;;;10509066;28;20072;-86
2021/05/12 08:23:00;;;;;;;8.55;7.60;;;;;;;;;;10512074;28;20029;-87
2021/05/12 08:28:01;;;;;;;8.98;5.60;;;;;;;;;;10509975;28;20021;-87
2021/05/12 08:33:03;;;;;;;7.88;3.85;;;;;;;;;;10504460;28;20035;-87
2021/05/12 08:38:04;;;;;;;4.03;3.15;;;;;;;;;;10504738;28;20043;-85
2021/05/12 08:43:05;;;;;;;6.10;3.42;;;;;;;;;;10507316;28;20029;-84
2021/05/12 08:48:11;;;;;;;7.40;6.65;;;;;;;;;;10509043;28;20063;-86
2021/05/12 08:53:13;;;;;;;5.53;3.88;;;;;;;;;;10505950;28;20028;-87
2021/05/12 08:58:14;;;;;;;10.75;9.63;;;;;;;;;;10505970;28;20039;-87
2021/05/12 09:03:17;;;;;;;5.53;4.85;;;;;;;;;;10507330;28;20553;-87
2021/05/12 09:08:22;;;;;;;9.95;4.57;;;;;;;;;;10503951;28;20505;-87
2021/05/12 09:13:33;;;;;;;4.38;2.60;;;;;;;;;;10507265;28;20028;-89
2021/05/12 09:18:34;;;;;;;4.45;2.88;;;;;;;;;;10507024;28;20021;-89
2021/05/12 09:23:39;;;;;;;6.70;4.38;;;;;;;;;;10506544;28;20378;-87
2021/05/12 09:28:40;;;;;;;7.00;3.10;;;;;;;;;;10505437;28;20490;-87
2021/05/12 09:33:43;;;;;;;5.18;2.88;;;;;;;;;;10505866;28;20140;-87
2021/05/12 09:38:52;;;;;;;5.78;2.75;;;;;;;;;;10506579;28;20056;-86
2021/05/12 09:43:57;;;;;;;5.97;2.65;;;;;;;;;;10504216;28;20064;-88
2021/05/12 09:49:04;;;;;;;3.83;2.13;;;;;;;;;;10503088;28;20050;-88
2021/05/12 09:54:34;;;;;;;4.55;2.53;;;;;;;;;;10504160;28;20086;-89
2021/05/12 09:59:37;;;;;;;4.00;2.40;;;;;;;;;;10488446;28;20143;-87
2021/05/12 10:04:42;;;;;;;3.85;2.35;;;;;;;;;;10504549;28;20036;-86
2021/05/12 10:09:49;;;;;;;4.15;2.20;;;;;;;;;;10506363;28;20078;-88
2021/05/12 10:14:56;;;;;;;2.90;2.30;;;;;;;;;;10507186;28;20027;-87
2021/05/12 10:19:58;;;;;;;4.03;2.40;;;;;;;;;;10503300;28;20029;-87
2021/05/12 10:25:01;;;;;;;4.03;2.50;;;;;;;;;;10503016;28;20035;-87
2021/05/12 10:30:14;;;;;;;6.45;2.97;;;;;;;;;;10510016;28;20079;-87
2021/05/12 10:35:16;;;;;;;3.90;3.03;;;;;;;;;;10507200;28;20028;-86
2021/05/12 10:40:21;;;;;;;7.22;3.22;;;;;;;;;;10512319;28;20331;-87
2021/05/12 10:45:37;;;;;;;4.13;3.50;;;;;;;;;;10517291;28;20025;-86
2021/05/12 10:50:48;;;;;;;6.32;3.50;;;;;;;;;;10516710;28;20016;-87
2021/05/12 10:55:59;;;;;;;4.30;3.58;;;;;;;;;;10513503;28;20029;-87
2021/05/12 11:01:10;;;;;;;6.45;3.80;;;;;;;;;;10516859;28;20020;-86
2021/05/12 11:06:14;;;;;;;4.47;2.95;;;;;;;;;;10511361;22;20046;-84
2021/05/12 11:11:16;;;;;;;6.45;2.58;;;;;;;;;;10438448;28;20029;-83
2021/05/12 11:16:23;;;;;;;5.72;2.97;;;;;;;;;;10414452;28;20099;-83
2021/05/12 11:21:38;;;;;;;4.40;3.15;;;;;;;;;;10413959;28;20045;-83
2021/05/12 11:31:41;;;;;;;4.82;2.88;;;;;;;;;;10432795;28;20030;-84
2021/05/12 11:36:42;;;;;;;3.80;2.88;;;;;;;;;;10412952;28;20138;-83
2021/05/12 11:41:43;;;;;;;6.60;3.03;;;;;;;;;;10414023;28;20447;-83
2021/05/12 11:46:44;;;;;;;7.10;3.50;;;;;;;;;;10432030;28;20041;-83
2021/05/12 11:51:46;;;;;;;6.15;3.28;;;;;;;;;;10420385;28;20040;-83
2021/05/12 11:56:51;;;;;;;3.80;2.78;;;;;;;;;;10413109;28;20048;-85
2021/05/12 12:01:57;;;;;;;4.63;2.63;;;;;;;;;;10410561;28;20075;-83
2021/05/12 12:06:58;;;;;;;4.13;2.53;;;;;;;;;;10411741;28;20030;-84
2021/05/12 12:11:59;;;;;;;6.00;2.90;;;;;;;;;;10429114;28;20036;-83
2021/05/12 12:17:00;;;;;;;5.32;3.10;;;;;;;;;;10414376;28;20045;-83
2021/05/12 12:22:02;;;;;;;12.77;7.35;;;;;;;;;;10432581;28;20091;-84
2021/05/12 12:27:03;;;;;;;5.75;3.97;;;;;;;;;;10410525;28;20075;-83
2021/05/12 12:32:06;;;;;;;4.40;2.85;;;;;;;;;;10412213;28;20116;-83
2021/05/12 12:37:18;;;;;;;5.22;2.10;;;;;;;;;;10430059;28;20022;-85
2021/05/12 12:42:29;;;;;;;4.65;2.55;;;;;;;;;;10415265;28;20025;-85
2021/05/12 12:53:11;;;;;;;5.40;3.40;;;;;;;;;;10396203;28;20075;-85
2021/05/12 12:58:16;;;;;;;3.85;2.53;;;;;;;;;;10418587;28;20021;-84
2021/05/12 13:03:20;;;;;;;4.10;2.10;;;;;;;;;;10409321;28;20021;-86
2021/05/12 13:08:32;;;;;;;3.53;1.95;;;;;;;;;;10434775;28;20033;-85
2021/05/12 13:13:34;;;;;;;4.38;2.30;;;;;;;;;;10419873;28;20025;-85
2021/05/12 13:18:46;;;;;;;4.88;1.90;;;;;;;;;;10409162;28;20032;-85
2021/05/12 13:23:55;;;;;;;3.75;2.13;;;;;;;;;;10429132;28;20387;-85
2021/05/12 13:29:02;;;;;;;5.47;2.00;;;;;;;;;;10412788;28;20386;-85
2021/05/12 13:34:09;;;;;;;4.63;2.60;;;;;;;;;;10412886;28;20044;-85
2021/05/12 13:39:11;;;;;;;5.25;1.90;;;;;;;;;;10430928;28;20028;-86
2021/05/12 13:44:13;;;;;;;4.53;1.95;;;;;;;;;;10414298;28;20032;-85
2021/05/12 13:49:15;;;;;;;3.47;2.20;;;;;;;;;;10394940;28;20030;-86
2021/05/12 13:54:29;;;;;;;4.82;1.85;;;;;;;;;;10418437;28;20036;-85
2021/05/12 14:04:50;;;;;;;5.10;1.75;;;;;;;;;;10426818;28;20037;-85
2021/05/12 14:09:53;;;;;;;5.25;2.60;;;;;;;;;;10412691;28;20056;-85
2021/05/12 14:15:02;;;;;;;4.43;1.67;;;;;;;;;;10433215;28;20021;-84
2021/05/12 14:20:03;;;;;;;3.10;1.63;;;;;;;;;;10431257;28;20021;-84
2021/05/12 14:25:04;;;;;;;6.07;2.83;;;;;;;;;;10452247;28;20088;-85
2021/05/12 14:30:06;;;;;;;5.53;3.35;;;;;;;;;;10434028;28;20037;-85
2021/05/12 14:35:07;;;;;;;4.35;2.67;;;;;;;;;;10434636;28;20034;-85
2021/05/12 14:40:08;;;;;;;4.63;2.75;;;;;;;;;;10427233;28;20047;-85
2021/05/12 14:45:10;;;;;;;6.82;3.05;;;;;;;;;;10418868;28;20033;-84
2021/05/12 14:50:13;;;;;;;3.83;2.70;;;;;;;;;;10413863;28;20395;-85
2021/05/12 15:00:37;;;;;;;4.90;3.22;;;;;;;;;;10431639;28;20038;-84
2021/05/12 15:11:08;;;;;;;7.82;5.38;;;;;;;;;;10404294;28;20033;-84
2021/05/12 15:16:12;;;;;;;6.13;4.03;;;;;;;;;;10410577;28;20022;-84
2021/05/12 15:21:12;;;;;;;7.05;5.63;;;;;;;;;;10408314;28;20384;-83
2021/05/12 15:26:13;;;;;;;6.78;4.72;;;;;;;;;;10426264;28;20067;-83
2021/05/12 15:31:14;;;;;;;5.95;5.38;;;;;;;;;;10410283;28;20051;-84
2021/05/12 15:36:16;;;;;;;6.85;5.28;;;;;;;;;;10409932;28;20026;-84
2021/05/12 15:41:17;;;;;;;8.38;5.53;;;;;;;;;;10428036;28;20075;-83
2021/05/12 15:46:18;;;;;;;6.88;4.22;;;;;;;;;;10411293;28;20079;-84
2021/05/12 15:51:19;;;;;;;5.05;3.70;;;;;;;;;;10410429;28;20125;-83
2021/05/12 15:56:20;;;;;;;6.20;4.85;;;;;;;;;;10422389;28;20036;-83
2021/05/12 16:01:22;;;;;;;4.40;3.80;;;;;;;;;;10448001;28;20040;-83
2021/05/12 16:06:23;;;;;;;6.07;3.80;;;;;;;;;;10408645;28;20499;-83
2021/05/12 16:11:24;;;;;;;5.05;3.95;;;;;;;;;;10432109;28;20029;-82
2021/05/12 16:16:25;;;;;;;4.47;3.33;;;;;;;;;;10420692;28;20029;-83
2021/05/12 16:21:29;;;;;;;5.50;3.10;;;;;;;;;;10444425;28;20503;-81
2021/05/12 16:26:31;;;;;;;7.07;6.10;;;;;;;;;;10421453;28;20025;-86
2021/05/12 16:31:32;;;;;;;6.78;6.07;;;;;;;;;;10432946;28;20032;-87
2021/05/12 16:36:33;;;;;;;4.10;3.70;;;;;;;;;;10417064;28;20028;-85
2021/05/12 16:41:34;;;;;;;5.53;5.00;;;;;;;;;;10415519;28;20043;-86
2021/05/12 16:46:35;;;;;;;4.65;4.10;;;;;;;;;;10413156;28;20112;-87
2021/05/12 16:51:36;;;;;;;3.80;3.40;;;;;;;;;;10411170;28;20040;-87
2021/05/12 16:56:38;;;;;;;6.07;3.35;;;;;;;;;;10415281;28;20060;-87
2021/05/12 17:01:39;;;;;;;4.57;2.78;;;;;;;;;;10414031;28;20018;-86
2021/05/12 17:06:40;;;;;;;3.70;3.05;;;;;;;;;;10411317;28;20044;-88
2021/05/12 17:11:50;;;;;;;3.05;2.47;;;;;;;;;;10409029;28;20037;-88
2021/05/12 17:16:54;;;;;;;4.65;3.00;;;;;;;;;;10409303;28;20025;-88
2021/05/12 17:21:55;;;;;;;2.72;2.38;;;;;;;;;;10408143;28;20531;-88
2021/05/12 17:26:56;;;;;;;3.65;2.83;;;;;;;;;;10414821;28;20042;-89
2021/05/12 17:31:57;;;;;;;2.45;2.00;;;;;;;;;;10413112;28;20033;-88
2021/05/12 17:36:58;;;;;;;2.65;2.10;;;;;;;;;;10409858;28;20026;-88
2021/05/12 17:41:59;;;;;;;3.20;2.72;;;;;;;;;;10405906;28;20116;-88
2021/05/12 17:47:00;;;;;;;3.47;2.70;;;;;;;;;;10404800;28;20029;-87
2021/05/12 17:52:04;;;;;;;3.35;2.65;;;;;;;;;;10403863;28;20029;-88
2021/05/12 17:57:06;;;;;;;3.97;2.25;;;;;;;;;;10406242;28;20178;-88
2021/05/12 18:02:08;;;;;;;4.13;2.95;;;;;;;;;;10417406;28;20507;-88
2021/05/12 18:07:09;;;;;;;6.90;4.90;;;;;;;;;;10429392;28;20038;-87
2021/05/12 18:12:27;;;;;;;4.10;2.83;;;;;;;;;;10406296;28;20029;-88
2021/05/12 18:17:28;;;;;;;4.30;3.90;;;;;;;;;;10409025;28;20021;-88
2021/05/12 18:22:30;;;;;;;4.88;3.10;;;;;;;;;;10412642;28;20033;-88
2021/05/12 18:27:31;;;;;;;5.70;3.95;;;;;;;;;;10405885;28;20033;-88
2021/05/12 18:32:34;;;;;;;3.90;3.10;;;;;;;;;;10418772;28;20037;-89
2021/05/12 18:37:44;;;;;;;4.40;3.85;;;;;;;;;;10427573;28;20026;-88
2021/05/12 18:42:45;;;;;;;7.45;4.60;;;;;;;;;;10408423;28;20049;-87
2021/05/12 18:48:31;;;;;;;7.32;4.15;;;;;;;;;;10409467;28;20030;-88
2021/05/12 18:53:07;;;;;;;6.13;4.32;;;;;;;;;;10422460;28;20040;-88
2021/05/12 18:58:08;;;;;;;4.35;3.05;;;;;;;;;;10418013;28;20018;-89
2021/05/12 19:03:13;;;;;;;4.10;3.22;;;;;;;;;;10428354;28;20116;-87
2021/05/12 19:08:20;;;;;;;3.80;3.08;;;;;;;;;;10419941;28;20033;-88
2021/05/12 19:18:38;;;;;;;3.10;2.80;;;;;;;;;;10441464;28;20055;-88
2021/05/12 19:23:45;;;;;;;3.03;2.22;;;;;;;;;;10426199;28;20022;-88
2021/05/12 19:44:17;;;;;;;3.75;2.70;;;;;;;;;;10439740;28;20038;-88
2021/05/12 19:49:18;;;;;;;2.67;2.40;;;;;;;;;;10420992;28;20029;-89
2021/05/12 19:54:22;;;;;;;4.40;2.78;;;;;;;;;;10420668;28;20030;-87
2021/05/12 19:59:28;;;;;;;3.55;2.72;;;;;;;;;;10422173;28;20022;-88
2021/05/12 20:04:36;;;;;;;3.85;2.80;;;;;;;;;;10414916;28;20033;-88
2021/05/12 20:14:38;;;;;;;4.35;3.95;;;;;;;;;;10438925;28;20033;-87
2021/05/12 20:19:39;;;;;;;3.80;3.40;;;;;;;;;;10417361;28;20543;-89
